sensor_id;sensor_type;location;lat;lon;timestamp;temperature;humidity
19999;DHT22;10160;50.926;4.374;2023-03-14T00:00:58;11.70;99.90
19999;DHT22;10160;50.926;4.374;2023-03-14T00:03:24;11.70;99.90
19999;DHT22;10160;50.926;4.374;2023-03-14T00:05:50;11.70;99.90
19999;DHT22;10160;50.926;4.374;2023-03-14T00:08:15;11.70;99.90
19999;DHT22;10160;50.926;4.374;2023-03-14T00:10:41;11.60;99.90
19999;DHT22;10160;50.926;4.374;2023-03-14T00:13:07;11.60;99.90
19999;DHT22;10160;50.926;4.374;2023-03-14T00:15:34;11.60;99.90
19999;DHT22;10160;50.926;4.374;2023-03-14T00:18:00;11.50;99.90
19999;DHT22;10160;50.926;4.374;2023-03-14T00:20:26;11.50;99.90
19999;DHT22;10160;50.926;4.374;2023-03-14T00:22:51;11.40;99.90
19999;DHT22;10160;50.926;4.374;2023-03-14T00:25:17;11.40;99.90
19999;DHT22;10160;50.926;4.374;2023-03-14T00:27:43;11.40;99.90
19999;DHT22;10160;50.926;4.374;2023-03-14T00:30:09;11.40;99.90
19999;DHT22;10160;50.926;4.374;2023-03-14T00:32:35;11.40;99.90
19999;DHT22;10160;50.926;4.374;2023-03-14T00:35:02;11.50;99.90
19999;DHT22;10160;50.926;4.374;2023-03-14T00:37:28;11.40;99.90
19999;DHT22;10160;50.926;4.374;2023-03-14T00:39:54;11.40;99.90
19999;DHT22;10160;50.926;4.374;2023-03-14T00:42:20;11.40;99.90
19999;DHT22;10160;50.926;4.374;2023-03-14T00:44:46;11.30;99.90
19999;DHT22;10160;50.926;4.374;2023-03-14T00:47:11;11.30;99.90
19999;DHT22;10160;50.926;4.374;2023-03-14T00:49:37;11.30;99.90
19999;DHT22;10160;50.926;4.374;2023-03-14T00:52:03;11.30;99.90
19999;DHT22;10160;50.926;4.374;2023-03-14T00:54:29;11.40;99.90
19999;DHT22;10160;50.926;4.374;2023-03-14T00:56:55;11.40;99.90
19999;DHT22;10160;50.926;4.374;2023-03-14T00:59:21;11.40;99.90
19999;DHT22;10160;50.926;4.374;2023-03-14T01:01:46;11.30;99.90
19999;DHT22;10160;50.926;4.374;2023-03-14T01:04:12;11.30;99.90
19999;DHT22;10160;50.926;4.374;2023-03-14T01:06:38;11.30;99.90
19999;DHT22;10160;50.926;4.374;2023-03-14T01:09:04;11.30;99.90
19999;DHT22;10160;50.926;4.374;2023-03-14T01:11:32;11.20;99.90
19999;DHT22;10160;50.926;4.374;2023-03-14T01:13:59;11.20;99.90
19999;DHT22;10160;50.926;4.374;2023-03-14T01:16:27;11.20;99.90
19999;DHT22;10160;50.926;4.374;2023-03-14T01:18:54;11.20;99.90
19999;DHT22;10160;50.926;4.374;2023-03-14T01:21:25;11.20;99.90
19999;DHT22;10160;50.926;4.374;2023-03-14T01:23:52;11.20;99.90
19999;DHT22;10160;50.926;4.374;2023-03-14T01:26:21;11.20;99.90
19999;DHT22;10160;50.926;4.374;2023-03-14T01:28:49;11.20;99.90
19999;DHT22;10160;50.926;4.374;2023-03-14T01:31:16;11.20;99.90
19999;DHT22;10160;50.926;4.374;2023-03-14T01:33:42;11.10;99.90
19999;DHT22;10160;50.926;4.374;2023-03-14T01:36:09;11.10;99.90
19999;DHT22;10160;50.926;4.374;2023-03-14T01:38:38;11.10;99.90
19999;DHT22;10160;50.926;4.374;2023-03-14T01:41:04;11.00;99.90
19999;DHT22;10160;50.926;4.374;2023-03-14T01:43:30;11.10;99.90
19999;DHT22;10160;50.926;4.374;2023-03-14T01:48:36;11.00;99.90
19999;DHT22;10160;50.926;4.374;2023-03-14T01:51:06;11.00;99.90
19999;DHT22;10160;50.926;4.374;2023-03-14T01:53:34;11.00;99.90
19999;DHT22;10160;50.926;4.374;2023-03-14T01:56:00;11.00;99.90
19999;DHT22;10160;50.926;4.374;2023-03-14T01:58:27;11.00;99.90
19999;DHT22;10160;50.926;4.374;2023-03-14T02:00:55;11.00;99.90
19999;DHT22;10160;50.926;4.374;2023-03-14T02:03:23;11.00;99.90
19999;DHT22;10160;50.926;4.374;2023-03-14T02:05:51;11.00;99.90
19999;DHT22;10160;50.926;4.374;2023-03-14T02:08:20;10.90;99.90
19999;DHT22;10160;50.926;4.374;2023-03-14T02:10:51;11.00;99.90
19999;DHT22;10160;50.926;4.374;2023-03-14T02:13:18;10.90;99.90
19999;DHT22;10160;50.926;4.374;2023-03-14T02:15:45;10.80;99.90
19999;DHT22;10160;50.926;4.374;2023-03-14T02:18:12;10.80;99.90
19999;DHT22;10160;50.926;4.374;2023-03-14T02:23:10;10.70;99.90
19999;DHT22;10160;50.926;4.374;2023-03-14T02:25:58;10.70;99.90
19999;DHT22;10160;50.926;4.374;2023-03-14T02:28:26;10.60;99.90
19999;DHT22;10160;50.926;4.374;2023-03-14T02:30:52;10.60;99.90
19999;DHT22;10160;50.926;4.374;2023-03-14T02:33:19;10.50;99.90
19999;DHT22;10160;50.926;4.374;2023-03-14T02:35:56;10.60;99.90
19999;DHT22;10160;50.926;4.374;2023-03-14T02:38:47;10.60;99.90
19999;DHT22;10160;50.926;4.374;2023-03-14T02:41:15;10.40;99.90
19999;DHT22;10160;50.926;4.374;2023-03-14T02:43:41;10.50;99.90
19999;DHT22;10160;50.926;4.374;2023-03-14T02:46:16;10.50;99.90
19999;DHT22;10160;50.926;4.374;2023-03-14T02:51:11;10.50;99.90
19999;DHT22;10160;50.926;4.374;2023-03-14T02:53:38;10.50;99.90
19999;DHT22;10160;50.926;4.374;2023-03-14T02:56:04;10.50;99.90
19999;DHT22;10160;50.926;4.374;2023-03-14T02:58:30;10.30;99.90
19999;DHT22;10160;50.926;4.374;2023-03-14T03:00:55;10.30;99.90
19999;DHT22;10160;50.926;4.374;2023-03-14T03:03:21;10.20;99.90
19999;DHT22;10160;50.926;4.374;2023-03-14T03:05:51;10.20;99.90
19999;DHT22;10160;50.926;4.374;2023-03-14T03:08:22;10.30;99.90
19999;DHT22;10160;50.926;4.374;2023-03-14T03:10:48;10.30;99.90
19999;DHT22;10160;50.926;4.374;2023-03-14T03:13:15;10.30;99.90
19999;DHT22;10160;50.926;4.374;2023-03-14T03:15:40;10.30;99.90
19999;DHT22;10160;50.926;4.374;2023-03-14T03:18:07;10.20;99.90
19999;DHT22;10160;50.926;4.374;2023-03-14T03:20:33;10.30;99.90
19999;DHT22;10160;50.926;4.374;2023-03-14T03:22:59;10.30;99.90
19999;DHT22;10160;50.926;4.374;2023-03-14T03:25:25;10.20;99.90
19999;DHT22;10160;50.926;4.374;2023-03-14T03:27:51;10.30;99.90
19999;DHT22;10160;50.926;4.374;2023-03-14T03:30:17;10.30;99.90
19999;DHT22;10160;50.926;4.374;2023-03-14T03:32:44;10.30;99.90
19999;DHT22;10160;50.926;4.374;2023-03-14T03:35:10;10.20;99.90
19999;DHT22;10160;50.926;4.374;2023-03-14T03:37:36;10.20;99.90
19999;DHT22;10160;50.926;4.374;2023-03-14T03:40:02;10.30;99.90
19999;DHT22;10160;50.926;4.374;2023-03-14T03:42:31;10.30;99.90
19999;DHT22;10160;50.926;4.374;2023-03-14T03:44:58;10.20;99.90
19999;DHT22;10160;50.926;4.374;2023-03-14T03:47:24;10.20;99.90
19999;DHT22;10160;50.926;4.374;2023-03-14T03:49:50;10.20;99.90
19999;DHT22;10160;50.926;4.374;2023-03-14T03:52:15;10.30;99.90
19999;DHT22;10160;50.926;4.374;2023-03-14T03:54:41;10.40;99.90
19999;DHT22;10160;50.926;4.374;2023-03-14T03:57:07;10.40;99.90
19999;DHT22;10160;50.926;4.374;2023-03-14T03:59:32;10.30;99.90
19999;DHT22;10160;50.926;4.374;2023-03-14T04:01:58;10.30;99.90
19999;DHT22;10160;50.926;4.374;2023-03-14T04:04:24;10.40;99.90
19999;DHT22;10160;50.926;4.374;2023-03-14T04:06:49;10.40;99.90
19999;DHT22;10160;50.926;4.374;2023-03-14T04:09:15;10.40;99.90
19999;DHT22;10160;50.926;4.374;2023-03-14T04:11:41;10.50;99.90
19999;DHT22;10160;50.926;4.374;2023-03-14T04:14:07;10.50;99.90
19999;DHT22;10160;50.926;4.374;2023-03-14T04:16:33;10.50;99.90
19999;DHT22;10160;50.926;4.374;2023-03-14T04:19:00;10.60;99.90
19999;DHT22;10160;50.926;4.374;2023-03-14T04:21:25;10.60;99.90
19999;DHT22;10160;50.926;4.374;2023-03-14T04:23:51;10.60;99.90
19999;DHT22;10160;50.926;4.374;2023-03-14T04:26:17;10.60;99.90
19999;DHT22;10160;50.926;4.374;2023-03-14T04:28:42;10.60;99.90
19999;DHT22;10160;50.926;4.374;2023-03-14T04:31:13;10.50;99.90
19999;DHT22;10160;50.926;4.374;2023-03-14T04:33:39;10.50;99.90
19999;DHT22;10160;50.926;4.374;2023-03-14T04:36:06;10.50;99.90
19999;DHT22;10160;50.926;4.374;2023-03-14T04:38:32;10.50;99.90
19999;DHT22;10160;50.926;4.374;2023-03-14T04:40:58;10.50;99.90
19999;DHT22;10160;50.926;4.374;2023-03-14T04:43:24;10.50;99.90
19999;DHT22;10160;50.926;4.374;2023-03-14T04:45:54;10.50;99.90
19999;DHT22;10160;50.926;4.374;2023-03-14T04:48:20;10.60;99.90
19999;DHT22;10160;50.926;4.374;2023-03-14T04:50:47;10.60;99.90
19999;DHT22;10160;50.926;4.374;2023-03-14T04:53:13;10.60;99.90
19999;DHT22;10160;50.926;4.374;2023-03-14T04:55:39;10.70;99.90
19999;DHT22;10160;50.926;4.374;2023-03-14T04:58:04;10.70;99.90
19999;DHT22;10160;50.926;4.374;2023-03-14T05:00:31;10.70;99.90
19999;DHT22;10160;50.926;4.374;2023-03-14T05:02:56;10.70;99.90
19999;DHT22;10160;50.926;4.374;2023-03-14T05:05:22;10.60;99.90
19999;DHT22;10160;50.926;4.374;2023-03-14T05:07:48;10.60;99.90
19999;DHT22;10160;50.926;4.374;2023-03-14T05:10:14;10.60;99.90
19999;DHT22;10160;50.926;4.374;2023-03-14T05:12:39;10.70;99.90
19999;DHT22;10160;50.926;4.374;2023-03-14T05:15:05;10.70;99.90
19999;DHT22;10160;50.926;4.374;2023-03-14T05:17:35;10.70;99.90
19999;DHT22;10160;50.926;4.374;2023-03-14T05:20:01;10.60;99.90
19999;DHT22;10160;50.926;4.374;2023-03-14T05:22:26;10.60;99.90
19999;DHT22;10160;50.926;4.374;2023-03-14T05:24:52;10.60;99.90
19999;DHT22;10160;50.926;4.374;2023-03-14T05:27:22;10.60;99.90
19999;DHT22;10160;50.926;4.374;2023-03-14T05:29:48;10.70;99.90
19999;DHT22;10160;50.926;4.374;2023-03-14T05:32:13;10.70;99.90
19999;DHT22;10160;50.926;4.374;2023-03-14T05:34:39;10.70;99.90
19999;DHT22;10160;50.926;4.374;2023-03-14T05:37:05;10.70;99.90
19999;DHT22;10160;50.926;4.374;2023-03-14T05:39:30;10.70;99.90
19999;DHT22;10160;50.926;4.374;2023-03-14T05:41:56;10.80;99.90
19999;DHT22;10160;50.926;4.374;2023-03-14T05:44:22;10.70;99.90
19999;DHT22;10160;50.926;4.374;2023-03-14T05:46:47;10.70;99.90
19999;DHT22;10160;50.926;4.374;2023-03-14T05:49:13;10.70;99.90
19999;DHT22;10160;50.926;4.374;2023-03-14T05:51:39;10.70;99.90
19999;DHT22;10160;50.926;4.374;2023-03-14T05:54:04;10.70;99.90
19999;DHT22;10160;50.926;4.374;2023-03-14T05:56:30;10.80;99.90
19999;DHT22;10160;50.926;4.374;2023-03-14T05:58:56;10.80;99.90
19999;DHT22;10160;50.926;4.374;2023-03-14T06:01:21;10.80;99.90
19999;DHT22;10160;50.926;4.374;2023-03-14T06:03:47;10.80;99.90
19999;DHT22;10160;50.926;4.374;2023-03-14T06:06:13;10.90;99.90
19999;DHT22;10160;50.926;4.374;2023-03-14T06:08:38;10.80;99.90
19999;DHT22;10160;50.926;4.374;2023-03-14T06:11:04;10.80;99.90
19999;DHT22;10160;50.926;4.374;2023-03-14T06:13:30;10.80;99.90
19999;DHT22;10160;50.926;4.374;2023-03-14T06:15:56;10.80;99.90
19999;DHT22;10160;50.926;4.374;2023-03-14T06:18:21;10.90;99.90
19999;DHT22;10160;50.926;4.374;2023-03-14T06:20:47;10.70;99.90
19999;DHT22;10160;50.926;4.374;2023-03-14T06:23:13;10.70;99.90
19999;DHT22;10160;50.926;4.374;2023-03-14T06:25:38;10.60;99.90
19999;DHT22;10160;50.926;4.374;2023-03-14T06:28:04;10.60;99.90
19999;DHT22;10160;50.926;4.374;2023-03-14T06:30:30;10.60;99.90
19999;DHT22;10160;50.926;4.374;2023-03-14T06:32:55;10.60;99.90
19999;DHT22;10160;50.926;4.374;2023-03-14T06:35:22;10.60;99.90
19999;DHT22;10160;50.926;4.374;2023-03-14T06:37:48;10.70;99.90
19999;DHT22;10160;50.926;4.374;2023-03-14T06:40:13;10.70;99.90
19999;DHT22;10160;50.926;4.374;2023-03-14T06:42:43;10.60;99.90
19999;DHT22;10160;50.926;4.374;2023-03-14T06:45:09;10.50;99.90
19999;DHT22;10160;50.926;4.374;2023-03-14T06:47:35;10.40;99.90
19999;DHT22;10160;50.926;4.374;2023-03-14T06:50:01;10.30;99.90
19999;DHT22;10160;50.926;4.374;2023-03-14T06:52:27;10.30;99.90
19999;DHT22;10160;50.926;4.374;2023-03-14T06:54:53;10.10;99.90
19999;DHT22;10160;50.926;4.374;2023-03-14T06:57:18;9.90;99.90
19999;DHT22;10160;50.926;4.374;2023-03-14T06:59:44;9.70;99.90
19999;DHT22;10160;50.926;4.374;2023-03-14T07:02:11;9.60;99.90
19999;DHT22;10160;50.926;4.374;2023-03-14T07:04:37;9.40;99.90
19999;DHT22;10160;50.926;4.374;2023-03-14T07:07:03;9.10;99.90
19999;DHT22;10160;50.926;4.374;2023-03-14T07:09:29;8.90;99.90
19999;DHT22;10160;50.926;4.374;2023-03-14T07:11:55;8.70;99.90
19999;DHT22;10160;50.926;4.374;2023-03-14T07:14:21;8.40;99.90
19999;DHT22;10160;50.926;4.374;2023-03-14T07:16:46;8.30;99.90
19999;DHT22;10160;50.926;4.374;2023-03-14T07:19:12;8.40;99.90
19999;DHT22;10160;50.926;4.374;2023-03-14T07:21:38;8.50;99.90
19999;DHT22;10160;50.926;4.374;2023-03-14T07:24:04;8.70;99.90
19999;DHT22;10160;50.926;4.374;2023-03-14T07:26:29;8.80;99.90
19999;DHT22;10160;50.926;4.374;2023-03-14T07:28:55;8.70;99.90
19999;DHT22;10160;50.926;4.374;2023-03-14T07:31:21;8.70;99.90
19999;DHT22;10160;50.926;4.374;2023-03-14T07:33:46;8.50;99.90
19999;DHT22;10160;50.926;4.374;2023-03-14T07:36:12;8.40;99.90
19999;DHT22;10160;50.926;4.374;2023-03-14T07:38:39;8.50;99.90
19999;DHT22;10160;50.926;4.374;2023-03-14T07:41:06;8.40;99.90
19999;DHT22;10160;50.926;4.374;2023-03-14T07:43:32;8.60;99.90
19999;DHT22;10160;50.926;4.374;2023-03-14T07:45:58;8.60;99.90
19999;DHT22;10160;50.926;4.374;2023-03-14T07:48:24;8.70;99.90
19999;DHT22;10160;50.926;4.374;2023-03-14T07:50:51;8.70;99.90
19999;DHT22;10160;50.926;4.374;2023-03-14T07:53:18;8.40;99.90
19999;DHT22;10160;50.926;4.374;2023-03-14T07:55:44;8.40;99.90
19999;DHT22;10160;50.926;4.374;2023-03-14T07:58:10;8.60;99.90
19999;DHT22;10160;50.926;4.374;2023-03-14T08:00:36;8.50;99.90
19999;DHT22;10160;50.926;4.374;2023-03-14T08:03:02;8.30;99.90
19999;DHT22;10160;50.926;4.374;2023-03-14T08:05:27;8.20;99.90
19999;DHT22;10160;50.926;4.374;2023-03-14T08:07:53;8.40;99.90
19999;DHT22;10160;50.926;4.374;2023-03-14T08:10:19;8.50;99.90
19999;DHT22;10160;50.926;4.374;2023-03-14T08:12:55;8.50;99.90
19999;DHT22;10160;50.926;4.374;2023-03-14T08:15:22;8.30;99.90
19999;DHT22;10160;50.926;4.374;2023-03-14T08:17:48;8.30;99.90
19999;DHT22;10160;50.926;4.374;2023-03-14T08:20:17;8.40;99.90
19999;DHT22;10160;50.926;4.374;2023-03-14T08:22:43;8.50;99.90
19999;DHT22;10160;50.926;4.374;2023-03-14T08:25:09;8.40;99.90
19999;DHT22;10160;50.926;4.374;2023-03-14T08:27:34;8.40;99.90
19999;DHT22;10160;50.926;4.374;2023-03-14T08:30:03;8.50;99.90
19999;DHT22;10160;50.926;4.374;2023-03-14T08:32:29;8.50;99.90
19999;DHT22;10160;50.926;4.374;2023-03-14T08:34:55;8.50;99.90
19999;DHT22;10160;50.926;4.374;2023-03-14T08:37:22;8.60;99.90
19999;DHT22;10160;50.926;4.374;2023-03-14T08:39:50;8.60;99.90
19999;DHT22;10160;50.926;4.374;2023-03-14T08:42:16;8.60;99.90
19999;DHT22;10160;50.926;4.374;2023-03-14T08:44:42;8.60;99.90
19999;DHT22;10160;50.926;4.374;2023-03-14T08:47:07;8.40;99.90
19999;DHT22;10160;50.926;4.374;2023-03-14T08:49:33;8.20;99.90
19999;DHT22;10160;50.926;4.374;2023-03-14T08:51:59;8.10;99.90
19999;DHT22;10160;50.926;4.374;2023-03-14T08:54:26;8.10;99.90
19999;DHT22;10160;50.926;4.374;2023-03-14T08:56:52;8.20;99.90
19999;DHT22;10160;50.926;4.374;2023-03-14T08:59:17;8.10;99.90
19999;DHT22;10160;50.926;4.374;2023-03-14T09:01:43;8.20;99.90
19999;DHT22;10160;50.926;4.374;2023-03-14T09:04:09;8.40;99.90
19999;DHT22;10160;50.926;4.374;2023-03-14T09:06:35;8.50;99.90
19999;DHT22;10160;50.926;4.374;2023-03-14T09:09:01;8.50;99.90
19999;DHT22;10160;50.926;4.374;2023-03-14T09:11:27;8.30;99.90
19999;DHT22;10160;50.926;4.374;2023-03-14T09:13:52;8.20;99.90
19999;DHT22;10160;50.926;4.374;2023-03-14T09:16:18;8.20;99.90
19999;DHT22;10160;50.926;4.374;2023-03-14T09:18:44;8.20;99.90
19999;DHT22;10160;50.926;4.374;2023-03-14T09:21:09;8.30;99.90
19999;DHT22;10160;50.926;4.374;2023-03-14T09:23:35;8.30;99.90
19999;DHT22;10160;50.926;4.374;2023-03-14T09:26:01;8.20;99.90
19999;DHT22;10160;50.926;4.374;2023-03-14T09:28:27;8.30;99.90
19999;DHT22;10160;50.926;4.374;2023-03-14T09:30:52;8.30;99.90
19999;DHT22;10160;50.926;4.374;2023-03-14T09:33:20;8.10;99.90
19999;DHT22;10160;50.926;4.374;2023-03-14T09:35:45;8.10;99.90
19999;DHT22;10160;50.926;4.374;2023-03-14T09:38:11;8.00;99.90
19999;DHT22;10160;50.926;4.374;2023-03-14T09:40:37;7.90;99.90
19999;DHT22;10160;50.926;4.374;2023-03-14T09:43:04;8.00;99.90
19999;DHT22;10160;50.926;4.374;2023-03-14T09:45:38;7.90;99.90
19999;DHT22;10160;50.926;4.374;2023-03-14T09:48:08;7.80;99.90
19999;DHT22;10160;50.926;4.374;2023-03-14T09:50:40;7.80;99.90
19999;DHT22;10160;50.926;4.374;2023-03-14T09:53:12;7.90;99.90
19999;DHT22;10160;50.926;4.374;2023-03-14T09:55:39;8.10;99.90
19999;DHT22;10160;50.926;4.374;2023-03-14T09:58:13;8.00;99.90
19999;DHT22;10160;50.926;4.374;2023-03-14T10:00:39;8.10;99.90
19999;DHT22;10160;50.926;4.374;2023-03-14T10:05:37;8.00;99.90
19999;DHT22;10160;50.926;4.374;2023-03-14T10:08:03;8.00;99.90
19999;DHT22;10160;50.926;4.374;2023-03-14T10:10:30;8.00;99.90
19999;DHT22;10160;50.926;4.374;2023-03-14T10:13:23;8.00;99.90
19999;DHT22;10160;50.926;4.374;2023-03-14T10:18:20;7.80;99.90
19999;DHT22;10160;50.926;4.374;2023-03-14T10:20:48;7.60;99.90
19999;DHT22;10160;50.926;4.374;2023-03-14T10:25:58;7.60;99.90
19999;DHT22;10160;50.926;4.374;2023-03-14T10:28:37;7.60;99.90
19999;DHT22;10160;50.926;4.374;2023-03-14T10:31:03;7.60;99.90
19999;DHT22;10160;50.926;4.374;2023-03-14T10:33:31;7.40;99.90
19999;DHT22;10160;50.926;4.374;2023-03-14T10:36:01;7.50;99.90
19999;DHT22;10160;50.926;4.374;2023-03-14T10:38:35;7.40;99.90
19999;DHT22;10160;50.926;4.374;2023-03-14T10:41:01;7.30;99.90
19999;DHT22;10160;50.926;4.374;2023-03-14T10:43:35;7.20;99.90
19999;DHT22;10160;50.926;4.374;2023-03-14T10:46:08;7.30;99.90
19999;DHT22;10160;50.926;4.374;2023-03-14T10:48:36;7.50;99.90
19999;DHT22;10160;50.926;4.374;2023-03-14T10:54:00;7.60;99.90
19999;DHT22;10160;50.926;4.374;2023-03-14T10:56:27;7.70;99.90
19999;DHT22;10160;50.926;4.374;2023-03-14T10:58:58;7.60;99.90
19999;DHT22;10160;50.926;4.374;2023-03-14T11:09:52;7.60;99.90
19999;DHT22;10160;50.926;4.374;2023-03-14T11:12:52;7.50;99.90
19999;DHT22;10160;50.926;4.374;2023-03-14T11:15:32;7.50;99.90
19999;DHT22;10160;50.926;4.374;2023-03-14T11:18:25;7.50;99.90
19999;DHT22;10160;50.926;4.374;2023-03-14T11:21:20;7.60;99.90
19999;DHT22;10160;50.926;4.374;2023-03-14T11:25:02;7.60;99.90
19999;DHT22;10160;50.926;4.374;2023-03-14T11:27:00;7.50;99.90
19999;DHT22;10160;50.926;4.374;2023-03-14T11:29:42;7.50;99.90
19999;DHT22;10160;50.926;4.374;2023-03-14T11:32:17;7.20;99.90
19999;DHT22;10160;50.926;4.374;2023-03-14T11:34:52;7.10;99.90
19999;DHT22;10160;50.926;4.374;2023-03-14T11:37:28;7.20;99.90
19999;DHT22;10160;50.926;4.374;2023-03-14T11:42:32;7.50;99.90
19999;DHT22;10160;50.926;4.374;2023-03-14T11:45:00;7.70;99.90
19999;DHT22;10160;50.926;4.374;2023-03-14T11:47:34;7.60;99.90
19999;DHT22;10160;50.926;4.374;2023-03-14T11:50:24;7.70;99.90
19999;DHT22;10160;50.926;4.374;2023-03-14T11:52:58;7.50;99.90
19999;DHT22;10160;50.926;4.374;2023-03-14T11:55:37;7.60;99.90
19999;DHT22;10160;50.926;4.374;2023-03-14T11:58:25;7.70;99.90
19999;DHT22;10160;50.926;4.374;2023-03-14T12:00:53;7.80;99.90
19999;DHT22;10160;50.926;4.374;2023-03-14T12:06:51;7.70;99.90
19999;DHT22;10160;50.926;4.374;2023-03-14T12:09:18;7.50;99.90
19999;DHT22;10160;50.926;4.374;2023-03-14T12:11:56;7.50;99.90
19999;DHT22;10160;50.926;4.374;2023-03-14T12:14:35;7.70;99.90
19999;DHT22;10160;50.926;4.374;2023-03-14T12:17:20;7.80;99.90
19999;DHT22;10160;50.926;4.374;2023-03-14T12:19:47;7.60;99.90
19999;DHT22;10160;50.926;4.374;2023-03-14T12:22:23;7.50;99.90
19999;DHT22;10160;50.926;4.374;2023-03-14T12:24:56;7.70;99.90
19999;DHT22;10160;50.926;4.374;2023-03-14T12:30:40;7.70;99.90
19999;DHT22;10160;50.926;4.374;2023-03-14T12:38:09;7.70;99.90
19999;DHT22;10160;50.926;4.374;2023-03-14T12:40:47;7.40;99.90
19999;DHT22;10160;50.926;4.374;2023-03-14T12:43:27;7.40;99.90
19999;DHT22;10160;50.926;4.374;2023-03-14T12:48:42;7.70;99.90
19999;DHT22;10160;50.926;4.374;2023-03-14T12:51:19;7.70;99.90
19999;DHT22;10160;50.926;4.374;2023-03-14T13:02:41;7.70;99.90
19999;DHT22;10160;50.926;4.374;2023-03-14T13:04:49;7.70;99.90
19999;DHT22;10160;50.926;4.374;2023-03-14T13:08:08;7.80;99.90
19999;DHT22;10160;50.926;4.374;2023-03-14T13:10:25;7.80;99.90
19999;DHT22;10160;50.926;4.374;2023-03-14T13:15:41;7.70;99.90
19999;DHT22;10160;50.926;4.374;2023-03-14T13:18:17;8.00;99.90
19999;DHT22;10160;50.926;4.374;2023-03-14T13:20:51;8.20;99.90
19999;DHT22;10160;50.926;4.374;2023-03-14T13:23:29;8.00;99.90
19999;DHT22;10160;50.926;4.374;2023-03-14T13:25:56;8.30;99.90
19999;DHT22;10160;50.926;4.374;2023-03-14T13:28:22;8.50;99.90
19999;DHT22;10160;50.926;4.374;2023-03-14T13:30:50;8.40;99.90
19999;DHT22;10160;50.926;4.374;2023-03-14T13:33:18;8.40;99.90
19999;DHT22;10160;50.926;4.374;2023-03-14T13:35:57;8.40;99.90
19999;DHT22;10160;50.926;4.374;2023-03-14T13:38:26;8.60;99.90
19999;DHT22;10160;50.926;4.374;2023-03-14T13:40:54;8.60;99.90
19999;DHT22;10160;50.926;4.374;2023-03-14T13:43:31;8.50;99.90
19999;DHT22;10160;50.926;4.374;2023-03-14T13:46:21;8.60;99.90
19999;DHT22;10160;50.926;4.374;2023-03-14T13:49:04;8.80;99.90
19999;DHT22;10160;50.926;4.374;2023-03-14T13:51:31;8.80;99.90
19999;DHT22;10160;50.926;4.374;2023-03-14T13:54:01;8.70;99.90
19999;DHT22;10160;50.926;4.374;2023-03-14T13:56:31;8.70;99.90
19999;DHT22;10160;50.926;4.374;2023-03-14T13:58:57;9.00;99.90
19999;DHT22;10160;50.926;4.374;2023-03-14T14:01:29;9.10;99.90
19999;DHT22;10160;50.926;4.374;2023-03-14T14:03:57;9.10;99.90
19999;DHT22;10160;50.926;4.374;2023-03-14T14:08:57;9.10;99.90
19999;DHT22;10160;50.926;4.374;2023-03-14T14:11:59;9.00;99.90
19999;DHT22;10160;50.926;4.374;2023-03-14T14:14:44;8.90;99.90
19999;DHT22;10160;50.926;4.374;2023-03-14T14:17:21;8.80;99.90
19999;DHT22;10160;50.926;4.374;2023-03-14T14:19:48;8.80;99.90
19999;DHT22;10160;50.926;4.374;2023-03-14T14:22:14;8.90;99.90
19999;DHT22;10160;50.926;4.374;2023-03-14T14:24:41;9.00;99.90
19999;DHT22;10160;50.926;4.374;2023-03-14T14:27:16;8.90;99.90
19999;DHT22;10160;50.926;4.374;2023-03-14T14:29:43;8.80;99.90
19999;DHT22;10160;50.926;4.374;2023-03-14T14:32:14;8.50;99.90
19999;DHT22;10160;50.926;4.374;2023-03-14T14:34:44;8.60;99.90
19999;DHT22;10160;50.926;4.374;2023-03-14T14:37:25;8.60;99.90
19999;DHT22;10160;50.926;4.374;2023-03-14T14:39:53;8.20;99.90
19999;DHT22;10160;50.926;4.374;2023-03-14T14:42:21;7.90;99.90
19999;DHT22;10160;50.926;4.374;2023-03-14T14:44:51;7.90;99.90
19999;DHT22;10160;50.926;4.374;2023-03-14T14:47:23;7.60;99.90
19999;DHT22;10160;50.926;4.374;2023-03-14T14:49:50;7.30;99.90
19999;DHT22;10160;50.926;4.374;2023-03-14T14:52:42;7.30;99.90
19999;DHT22;10160;50.926;4.374;2023-03-14T14:55:33;7.20;99.90
19999;DHT22;10160;50.926;4.374;2023-03-14T14:58:17;7.20;99.90
19999;DHT22;10160;50.926;4.374;2023-03-14T15:00:53;7.10;99.90
19999;DHT22;10160;50.926;4.374;2023-03-14T15:03:19;7.30;99.90
19999;DHT22;10160;50.926;4.374;2023-03-14T15:05:45;7.20;99.90
19999;DHT22;10160;50.926;4.374;2023-03-14T15:08:11;7.40;99.90
19999;DHT22;10160;50.926;4.374;2023-03-14T15:10:37;7.70;99.90
19999;DHT22;10160;50.926;4.374;2023-03-14T15:13:02;7.90;99.90
19999;DHT22;10160;50.926;4.374;2023-03-14T15:15:28;8.00;99.90
19999;DHT22;10160;50.926;4.374;2023-03-14T15:17:54;8.00;99.90
19999;DHT22;10160;50.926;4.374;2023-03-14T15:20:20;8.20;99.90
19999;DHT22;10160;50.926;4.374;2023-03-14T15:22:49;8.20;99.90
19999;DHT22;10160;50.926;4.374;2023-03-14T15:25:15;8.50;99.90
19999;DHT22;10160;50.926;4.374;2023-03-14T15:27:41;8.60;99.90
19999;DHT22;10160;50.926;4.374;2023-03-14T15:30:15;8.60;99.90
19999;DHT22;10160;50.926;4.374;2023-03-14T15:32:41;8.70;99.90
19999;DHT22;10160;50.926;4.374;2023-03-14T15:35:07;8.90;99.90
19999;DHT22;10160;50.926;4.374;2023-03-14T15:37:33;9.10;99.90
19999;DHT22;10160;50.926;4.374;2023-03-14T15:39:58;9.10;99.90
19999;DHT22;10160;50.926;4.374;2023-03-14T15:42:24;9.00;99.90
19999;DHT22;10160;50.926;4.374;2023-03-14T15:44:50;9.10;99.90
19999;DHT22;10160;50.926;4.374;2023-03-14T15:47:16;8.90;99.90
19999;DHT22;10160;50.926;4.374;2023-03-14T15:49:41;9.00;99.90
19999;DHT22;10160;50.926;4.374;2023-03-14T15:52:08;9.00;99.90
19999;DHT22;10160;50.926;4.374;2023-03-14T15:54:34;8.90;99.90
19999;DHT22;10160;50.926;4.374;2023-03-14T15:57:00;9.00;99.90
19999;DHT22;10160;50.926;4.374;2023-03-14T15:59:26;9.00;99.90
19999;DHT22;10160;50.926;4.374;2023-03-14T16:01:52;8.80;99.90
19999;DHT22;10160;50.926;4.374;2023-03-14T16:04:18;8.80;99.90
19999;DHT22;10160;50.926;4.374;2023-03-14T16:06:44;8.80;99.90
19999;DHT22;10160;50.926;4.374;2023-03-14T16:09:13;8.70;99.90
19999;DHT22;10160;50.926;4.374;2023-03-14T16:11:39;8.30;99.90
19999;DHT22;10160;50.926;4.374;2023-03-14T16:14:05;8.30;99.90
19999;DHT22;10160;50.926;4.374;2023-03-14T16:16:31;8.40;99.90
19999;DHT22;10160;50.926;4.374;2023-03-14T16:18:57;8.60;99.90
19999;DHT22;10160;50.926;4.374;2023-03-14T16:21:23;8.40;99.90
19999;DHT22;10160;50.926;4.374;2023-03-14T16:23:49;8.40;99.90
19999;DHT22;10160;50.926;4.374;2023-03-14T16:26:17;8.30;99.90
19999;DHT22;10160;50.926;4.374;2023-03-14T16:28:44;8.30;99.90
19999;DHT22;10160;50.926;4.374;2023-03-14T16:31:12;8.30;99.90
19999;DHT22;10160;50.926;4.374;2023-03-14T16:33:39;8.40;99.90
19999;DHT22;10160;50.926;4.374;2023-03-14T16:36:06;8.30;99.90
19999;DHT22;10160;50.926;4.374;2023-03-14T16:38:34;8.10;99.90
19999;DHT22;10160;50.926;4.374;2023-03-14T16:41:13;8.20;99.90
19999;DHT22;10160;50.926;4.374;2023-03-14T16:43:40;8.30;99.90
19999;DHT22;10160;50.926;4.374;2023-03-14T16:46:09;8.20;99.90